createdAt,value
2019-03-30T00:04:04.377Z,11.53
2019-03-30T00:08:16.109Z,9.30
2019-03-30T00:12:27.678Z,16.50
2019-03-30T00:16:39.483Z,11.43
2019-03-30T00:20:52.640Z,14.07
2019-03-30T00:25:06.504Z,13.70
2019-03-30T00:29:18.691Z,12.67
2019-03-30T00:33:30.817Z,13.17
2019-03-30T00:37:42.755Z,13.60
2019-03-30T00:41:54.946Z,11.57
2019-03-30T00:46:06.866Z,14.40
2019-03-30T00:50:20.324Z,12.33
2019-03-30T00:54:33.478Z,11.97
2019-03-30T00:58:56.816Z,13.80
2019-03-30T01:03:20.400Z,13.43
2019-03-30T01:07:35.649Z,12.80
2019-03-30T01:11:48.422Z,13.73
2019-03-30T01:16:03.190Z,14.20
2019-03-30T01:20:16.240Z,12.13
2019-03-30T01:24:29.540Z,12.43
2019-03-30T01:28:42.037Z,12.80
2019-03-30T01:32:54.280Z,13.10
2019-03-30T01:37:07.441Z,12.73
2019-03-30T01:41:20.615Z,12.83
2019-03-30T01:45:32.720Z,11.67
2019-03-30T01:49:44.480Z,11.93
2019-03-30T01:53:57.463Z,12.30
2019-03-30T01:58:10.176Z,11.30
2019-03-30T02:02:22.302Z,12.50
2019-03-30T02:06:34.773Z,11.57
2019-03-30T02:10:48.846Z,12.50
2019-03-30T02:15:01.326Z,13.80
2019-03-30T02:19:12.099Z,11.13
2019-03-30T02:23:23.707Z,13.30
2019-03-30T02:27:36.000Z,11.30
2019-03-30T02:31:48.022Z,10.50
2019-03-30T02:36:00.188Z,10.40
2019-03-30T02:40:11.968Z,9.73
2019-03-30T02:44:22.887Z,11.17
2019-03-30T02:48:35.880Z,8.77
2019-03-30T02:52:50.310Z,9.40
2019-03-30T02:57:01.900Z,8.53
2019-03-30T03:01:13.402Z,9.50
2019-03-30T03:05:24.430Z,10.10
2019-03-30T03:09:36.107Z,9.10
2019-03-30T03:13:48.135Z,8.00
2019-03-30T03:17:59.914Z,8.10
2019-03-30T03:22:12.074Z,9.07
2019-03-30T03:26:23.834Z,8.47
2019-03-30T03:30:37.368Z,8.77
2019-03-30T03:34:48.846Z,8.07
2019-03-30T03:39:02.546Z,8.23
2019-03-30T03:43:15.209Z,7.63
2019-03-30T03:47:28.463Z,7.67
2019-03-30T03:51:39.842Z,7.10
2019-03-30T03:55:52.554Z,7.30
2019-03-30T04:00:05.850Z,8.83
2019-03-30T04:04:19.946Z,7.30
2019-03-30T04:08:33.485Z,8.10
2019-03-30T04:12:51.759Z,6.63
2019-03-30T04:17:03.732Z,7.00
2019-03-30T04:21:15.573Z,6.53
2019-03-30T04:25:27.624Z,6.87
2019-03-30T04:29:39.607Z,11.27
2019-03-30T04:33:51.653Z,7.10
2019-03-30T04:38:03.428Z,6.47
2019-03-30T04:42:15.404Z,6.13
2019-03-30T04:46:27.819Z,5.70
2019-03-30T04:50:39.169Z,4.80
2019-03-30T04:54:50.761Z,6.60
2019-03-30T04:59:01.939Z,6.10
2019-03-30T05:03:14.807Z,5.03
2019-03-30T05:07:25.599Z,5.37
2019-03-30T05:11:37.440Z,6.77
2019-03-30T05:15:48.441Z,5.50
2019-03-30T05:20:00.359Z,5.83
2019-03-30T05:24:15.506Z,5.43
2019-03-30T05:28:27.639Z,4.90
2019-03-30T05:32:41.647Z,6.00
2019-03-30T05:36:53.707Z,4.10
2019-03-30T05:41:05.433Z,4.33
2019-03-30T05:45:26.208Z,4.50
2019-03-30T05:49:38.733Z,4.37
2019-03-30T05:53:51.362Z,4.43
2019-03-30T05:58:03.636Z,5.10
2019-03-30T06:02:15.731Z,4.20
2019-03-30T06:06:27.814Z,4.53
2019-03-30T06:10:39.716Z,4.20
2019-03-30T06:14:52.012Z,5.03
2019-03-30T06:19:05.394Z,5.13
2019-03-30T06:23:17.540Z,4.30
2019-03-30T06:27:29.604Z,3.90
2019-03-30T06:31:41.507Z,4.17
2019-03-30T06:35:53.526Z,4.07
2019-03-30T06:40:04.871Z,5.30
2019-03-30T06:44:16.334Z,4.23
2019-03-30T06:48:28.174Z,5.43
2019-03-30T06:52:42.715Z,4.57
2019-03-30T06:56:53.533Z,4.53
2019-03-30T07:01:05.477Z,4.20
2019-03-30T07:05:18.270Z,4.50
2019-03-30T07:09:33.205Z,3.80
2019-03-30T07:13:46.955Z,5.50
2019-03-30T07:18:01.722Z,4.20
2019-03-30T07:22:13.150Z,4.93
2019-03-30T07:26:24.549Z,4.27
2019-03-30T07:30:36.062Z,3.77
2019-03-30T07:34:48.413Z,4.17
2019-03-30T07:38:59.817Z,4.20
2019-03-30T07:43:12.327Z,4.17
2019-03-30T07:47:24.352Z,4.40
2019-03-30T07:51:35.818Z,5.33
2019-03-30T07:55:47.526Z,4.20
2019-03-30T07:59:59.125Z,3.70
2019-03-30T08:04:11.419Z,4.37
2019-03-30T08:08:23.069Z,5.67
2019-03-30T08:12:34.659Z,4.30
2019-03-30T08:16:47.584Z,3.90
2019-03-30T08:20:59.042Z,4.87
2019-03-30T08:25:12.092Z,5.17
2019-03-30T08:29:24.676Z,3.93
2019-03-30T08:33:36.387Z,3.27
2019-03-30T08:37:47.357Z,4.27
2019-03-30T08:41:58.946Z,3.67
2019-03-30T08:46:10.549Z,4.13
2019-03-30T08:50:22.326Z,4.43
2019-03-30T08:54:34.713Z,3.80
2019-03-30T08:58:47.297Z,4.10
2019-03-30T09:02:59.132Z,3.47
2019-03-30T09:07:12.024Z,3.63
2019-03-30T09:11:24.518Z,3.63
2019-03-30T09:15:36.520Z,5.03
2019-03-30T09:19:48.942Z,3.53
2019-03-30T09:24:09.550Z,4.90
2019-03-30T09:28:14.655Z,4.17
2019-03-30T09:32:27.437Z,3.50
2019-03-30T09:36:39.051Z,3.90
2019-03-30T09:40:51.479Z,4.07
2019-03-30T09:45:03.357Z,4.03
2019-03-30T09:49:17.427Z,4.07
2019-03-30T09:53:30.309Z,3.90
2019-03-30T09:57:43.470Z,3.70
2019-03-30T10:01:55.439Z,5.43
2019-03-30T10:06:07.495Z,6.97
2019-03-30T10:10:18.996Z,3.83
2019-03-30T10:14:30.486Z,4.27
2019-03-30T10:18:42.766Z,5.63
2019-03-30T10:22:55.012Z,4.70
2019-03-30T10:27:08.431Z,3.90
2019-03-30T10:31:20.733Z,3.83
2019-03-30T10:35:32.826Z,4.13
2019-03-30T10:39:44.062Z,5.90
2019-03-30T10:43:57.215Z,4.10
2019-03-30T10:48:09.296Z,4.30
2019-03-30T10:52:24.272Z,4.93
2019-03-30T10:56:36.312Z,6.20
2019-03-30T11:00:48.162Z,4.93
2019-03-30T11:04:59.936Z,4.83
2019-03-30T11:09:12.283Z,7.80
2019-03-30T11:13:24.987Z,7.23
2019-03-30T11:17:37.200Z,6.03
2019-03-30T11:21:48.715Z,11.10
2019-03-30T11:26:01.334Z,10.27
2019-03-30T11:30:13.033Z,29.47
2019-03-30T11:34:25.864Z,47.67
2019-03-30T11:38:38.900Z,50.70
2019-03-30T11:42:50.500Z,46.50
2019-03-30T11:47:02.206Z,46.33
2019-03-30T11:51:14.474Z,48.57
2019-03-30T11:55:26.779Z,40.87
2019-03-30T11:59:39.139Z,45.73
2019-03-30T12:03:52.267Z,50.50
2019-03-30T12:08:04.198Z,49.07
2019-03-30T12:12:16.301Z,41.60
2019-03-30T12:16:28.866Z,30.20
2019-03-30T12:20:41.715Z,40.23
2019-03-30T12:24:53.495Z,59.90
2019-03-30T12:29:04.746Z,38.47
2019-03-30T12:33:15.905Z,35.23
2019-03-30T12:37:27.685Z,34.03
2019-03-30T12:41:39.661Z,30.53
2019-03-30T12:45:51.803Z,34.63
2019-03-30T12:50:03.232Z,34.20
2019-03-30T12:54:14.959Z,38.43
2019-03-30T12:58:25.940Z,35.33
2019-03-30T13:02:38.630Z,27.47
2019-03-30T13:06:50.282Z,32.50
2019-03-30T13:11:03.372Z,31.60
2019-03-30T13:15:16.131Z,29.23
2019-03-30T13:19:29.007Z,25.97
2019-03-30T13:23:40.054Z,24.00
2019-03-30T13:27:53.506Z,25.70
2019-03-30T13:32:05.331Z,22.90
2019-03-30T13:36:17.586Z,24.70
2019-03-30T13:40:29.930Z,26.80
2019-03-30T13:44:41.968Z,24.30
2019-03-30T13:48:54.984Z,22.47
2019-03-30T13:53:07.682Z,20.90
2019-03-30T13:57:18.892Z,20.73
2019-03-30T14:01:31.673Z,23.97
2019-03-30T14:05:44.087Z,26.70
2019-03-30T14:09:57.429Z,19.13
2019-03-30T14:14:08.389Z,24.03
2019-03-30T14:18:20.437Z,20.33
2019-03-30T14:22:32.159Z,18.30
2019-03-30T14:26:44.342Z,20.43
2019-03-30T14:30:56.683Z,21.50
2019-03-30T14:35:09.561Z,20.33
2019-03-30T14:39:22.134Z,21.13
2019-03-30T14:43:35.549Z,18.77
2019-03-30T14:47:47.587Z,21.43
2019-03-30T14:52:00.056Z,19.57
2019-03-30T14:56:13.728Z,18.60
2019-03-30T15:00:25.424Z,18.40
2019-03-30T15:04:37.115Z,20.07
2019-03-30T15:08:49.051Z,18.60
2019-03-30T15:13:01.179Z,17.73
2019-03-30T15:17:13.154Z,19.50
2019-03-30T15:21:25.698Z,18.97
2019-03-30T15:25:37.952Z,21.60
2019-03-30T15:29:49.838Z,21.57
2019-03-30T15:34:01.239Z,20.47
2019-03-30T15:38:13.962Z,17.70
2019-03-30T15:42:25.984Z,17.73
2019-03-30T15:46:37.805Z,14.43
2019-03-30T15:50:49.885Z,16.63
2019-03-30T15:55:02.094Z,16.47
2019-03-30T15:59:14.284Z,18.37
2019-03-30T16:03:27.153Z,16.87
2019-03-30T16:07:41.622Z,18.37
2019-03-30T16:11:55.133Z,20.50
2019-03-30T16:16:09.387Z,22.97
2019-03-30T16:20:21.966Z,18.53
2019-03-30T16:24:34.402Z,21.57
2019-03-30T16:28:48.001Z,17.83
2019-03-30T16:33:01.049Z,17.07
2019-03-30T16:37:12.627Z,17.17
2019-03-30T16:41:26.679Z,17.20
2019-03-30T16:45:40.471Z,18.50
2019-03-30T16:49:54.507Z,17.67
2019-03-30T16:54:06.938Z,16.47
2019-03-30T16:58:20.126Z,17.83
2019-03-30T17:02:32.210Z,16.80
2019-03-30T17:06:45.200Z,18.47
2019-03-30T17:10:57.195Z,16.40
2019-03-30T17:15:09.748Z,18.80
2019-03-30T17:19:22.427Z,20.27
2019-03-30T17:23:34.833Z,18.23
2019-03-30T17:28:08.015Z,17.40
2019-03-30T17:32:20.646Z,17.53
2019-03-30T17:36:42.538Z,17.57
2019-03-30T17:40:55.160Z,17.43
2019-03-30T17:45:06.919Z,17.53
2019-03-30T17:49:25.870Z,18.10
2019-03-30T17:53:39.411Z,17.50
2019-03-30T17:57:52.146Z,18.43
2019-03-30T18:02:03.957Z,17.70
2019-03-30T18:06:15.858Z,18.47
2019-03-30T18:10:27.707Z,18.83
2019-03-30T18:14:39.617Z,18.17
2019-03-30T18:18:52.911Z,18.27
2019-03-30T18:23:05.482Z,18.97
2019-03-30T18:27:17.077Z,18.87
2019-03-30T18:31:30.708Z,17.40
2019-03-30T18:35:44.045Z,18.80
2019-03-30T18:39:56.281Z,18.77
2019-03-30T18:44:08.538Z,19.93
2019-03-30T18:48:24.022Z,18.80
2019-03-30T18:52:35.959Z,18.27
2019-03-30T18:56:50.750Z,21.37
2019-03-30T19:01:04.903Z,18.93
2019-03-30T19:05:16.363Z,19.77
2019-03-30T19:09:29.086Z,18.53
2019-03-30T19:13:41.024Z,18.27
2019-03-30T19:17:53.249Z,17.70
2019-03-30T19:22:05.039Z,18.43
2019-03-30T19:26:17.404Z,18.90
2019-03-30T19:30:29.764Z,18.37
2019-03-30T19:34:42.382Z,19.90
2019-03-30T19:38:54.334Z,19.83
2019-03-30T19:43:06.879Z,20.23
2019-03-30T19:47:18.933Z,19.17
2019-03-30T19:51:30.398Z,18.00
2019-03-30T19:55:42.432Z,20.07
2019-03-30T19:59:54.375Z,20.10
2019-03-30T20:04:07.685Z,18.87
2019-03-30T20:08:18.940Z,19.03
2019-03-30T20:12:30.650Z,19.10
2019-03-30T20:16:42.506Z,17.87
2019-03-30T20:20:55.616Z,17.57
2019-03-30T20:25:07.310Z,18.17
2019-03-30T20:29:25.210Z,19.20
2019-03-30T20:33:31.553Z,18.63
2019-03-30T20:37:44.117Z,34.43
2019-03-30T20:42:15.237Z,48.87
2019-03-30T20:46:28.393Z,31.67
2019-03-30T20:50:40.403Z,41.70
2019-03-30T20:54:52.542Z,49.10
2019-03-30T20:59:05.393Z,46.23
2019-03-30T21:03:18.519Z,44.23
2019-03-30T21:07:32.168Z,43.73
2019-03-30T21:11:44.564Z,45.60
2019-03-30T21:15:56.011Z,42.03
2019-03-30T21:20:07.516Z,40.90
2019-03-30T21:24:19.982Z,33.97
2019-03-30T21:28:31.602Z,38.80
2019-03-30T21:32:44.537Z,115.10
2019-03-30T21:42:09.307Z,43.23
2019-03-30T21:46:21.597Z,41.67
2019-03-30T21:50:33.724Z,40.43
2019-03-30T21:54:45.294Z,37.17
2019-03-30T21:58:56.376Z,34.90
2019-03-30T22:03:07.894Z,46.87
2019-03-30T22:07:20.070Z,35.27
2019-03-30T22:11:32.697Z,43.13
2019-03-30T22:15:45.491Z,37.77
2019-03-30T22:19:57.279Z,40.00
2019-03-30T22:24:12.067Z,36.77
2019-03-30T22:28:24.393Z,35.73
2019-03-30T22:32:38.140Z,33.20
2019-03-30T22:36:51.073Z,35.40
2019-03-30T22:41:03.780Z,30.50
2019-03-30T22:45:16.396Z,28.40
2019-03-30T22:49:27.772Z,27.00
2019-03-30T22:53:41.057Z,25.57
2019-03-30T22:57:59.291Z,37.93
2019-03-30T23:02:20.624Z,29.40
2019-03-30T23:06:49.437Z,25.07
2019-03-30T23:11:11.885Z,38.60
2019-03-30T23:15:35.180Z,178.97
2019-03-30T23:19:50.459Z,41.27
2019-03-30T23:24:13.686Z,37.13
2019-03-30T23:28:38.029Z,39.77
2019-03-30T23:32:50.453Z,32.80
2019-03-30T23:37:02.841Z,33.23
2019-03-30T23:41:25.678Z,31.90
2019-03-30T23:45:38.723Z,30.33
2019-03-30T23:49:52.529Z,30.87
2019-03-30T23:54:04.647Z,29.93
2019-03-30T23:58:27.875Z,29.33
